Time;durP1;ratioP1;P1;durP2;ratioP2;P2;SDS_P1;SDS_P2;PMS_P1;PMS_P2;Temp;Humidity;BMP_temperature;BMP_pressure;BME280_temperature;BME280_humidity;BME280_pressure;Samples;Min_cycle;Max_cycle;Signal;HPM_P1;HPM_P2
2022/04/06 00:00:46;;;;;;;4.40;3.93;;;11.10;1.00;;;;;;5011489;28;20474;-72
2022/04/06 00:03:13;;;;;;;4.30;3.80;;;11.20;1.00;;;;;;4996537;28;20470;-72
2022/04/06 00:05:42;;;;;;;4.47;4.03;;;11.20;1.00;;;;;;4996174;28;20429;-74
2022/04/06 00:08:07;;;;;;;4.40;4.00;;;11.20;1.00;;;;;;4996645;28;20935;-72
2022/04/06 00:10:33;;;;;;;5.20;4.07;;;;;;;;;;4995994;28;20448;-72
2022/04/06 00:13:00;;;;;;;4.77;3.97;;;11.20;1.00;;;;;;5004916;28;20188;-72
2022/04/06 00:15:26;;;;;;;5.83;3.50;;;11.20;1.00;;;;;;4996884;28;20395;-72
2022/04/06 00:17:53;;;;;;;5.23;4.10;;;11.20;1.00;;;;;;4996330;28;20522;-72
2022/04/06 00:20:19;;;;;;;4.97;3.80;;;11.20;1.00;;;;;;4996035;28;20479;-72
2022/04/06 00:22:44;;;;;;;4.50;4.03;;;11.10;1.00;;;;;;4996673;28;20555;-75
2022/04/06 00:25:10;;;;;;;6.00;4.73;;;;;;;;;;4996055;28;20494;-75
2022/04/06 00:27:36;;;;;;;3.70;3.40;;;11.10;1.00;;;;;;4995831;28;20185;-75
2022/04/06 00:30:03;;;;;;;4.50;4.07;;;11.10;1.00;;;;;;4995998;28;20471;-75
2022/04/06 00:32:29;;;;;;;5.10;4.50;;;11.10;1.00;;;;;;4996068;28;20406;-75
2022/04/06 00:37:39;;;;;;;6.27;4.57;;;11.00;1.00;;;;;;4996036;28;20197;-75
2022/04/06 00:40:08;;;;;;;5.90;4.03;;;11.00;1.00;;;;;;4995603;28;20437;-75
2022/04/06 00:42:33;;;;;;;7.33;4.73;;;11.00;1.00;;;;;;4995612;28;20491;-75
2022/04/06 00:45:00;;;;;;;8.17;4.13;;;;;;;;;;4995553;28;20403;-75
2022/04/06 00:47:25;;;;;;;7.30;5.17;;;11.00;1.00;;;;;;4992679;28;20232;-75
2022/04/06 00:49:51;;;;;;;7.63;5.63;;;11.00;1.00;;;;;;4995372;28;20437;-75
2022/04/06 00:52:18;;;;;;;5.90;4.33;;;;;;;;;;4995928;28;20192;-76
2022/04/06 00:54:43;;;;;;;10.10;5.60;;;10.90;1.00;;;;;;4995389;28;20202;-75
2022/04/06 00:57:09;;;;;;;10.20;5.80;;;11.00;1.00;;;;;;4995322;28;20455;-75
2022/04/06 00:59:36;;;;;;;7.90;5.70;;;10.90;1.00;;;;;;4995448;28;20550;-74
2022/04/06 01:02:02;;;;;;;8.93;5.93;;;10.90;1.00;;;;;;4995426;28;20427;-75
2022/04/06 01:04:28;;;;;;;9.73;6.10;;;;;;;;;;4994852;28;20759;-75
2022/04/06 01:06:54;;;;;;;8.93;6.00;;;10.90;1.00;;;;;;4994956;28;20425;-75
2022/04/06 01:09:21;;;;;;;9.10;6.13;;;10.90;1.00;;;;;;4995396;28;20419;-75
2022/04/06 01:11:49;;;;;;;10.60;6.90;;;10.90;1.00;;;;;;4995082;28;20213;-75
2022/04/06 01:14:14;;;;;;;10.53;7.40;;;10.80;1.00;;;;;;5005143;28;20533;-75
2022/04/06 01:16:41;;;;;;;7.60;5.93;;;10.90;1.00;;;;;;4982658;28;20533;-75
2022/04/06 01:19:07;;;;;;;8.00;6.07;;;10.90;1.00;;;;;;4995315;28;20177;-75
2022/04/06 01:21:33;;;;;;;8.73;6.33;;;10.90;1.00;;;;;;4994973;28;20992;-72
2022/04/06 01:23:59;;;;;;;8.23;6.40;;;10.90;1.00;;;;;;4995167;28;20398;-72
2022/04/06 01:26:25;;;;;;;12.20;6.90;;;;;;;;;;4994584;28;20399;-72
2022/04/06 01:28:51;;;;;;;9.00;7.00;;;10.80;1.00;;;;;;4994977;28;20188;-72
2022/04/06 01:31:17;;;;;;;8.57;6.80;;;10.90;1.00;;;;;;4994832;28;20422;-72
2022/04/06 01:33:44;;;;;;;10.30;7.17;;;10.90;1.00;;;;;;4994551;28;20194;-72
2022/04/06 01:36:09;;;;;;;10.17;6.87;;;10.80;1.00;;;;;;4994748;28;20518;-72
2022/04/06 01:38:35;;;;;;;8.40;6.80;;;;;;;;;;4994490;28;20421;-72
2022/04/06 01:41:02;;;;;;;12.10;6.70;;;10.80;1.00;;;;;;4993412;28;20609;-72
2022/04/06 01:43:28;;;;;;;9.20;6.97;;;;;;;;;;4994132;28;20464;-72
2022/04/06 01:45:54;;;;;;;10.07;7.17;;;10.90;1.00;;;;;;4993435;28;20533;-72
2022/04/06 01:48:20;;;;;;;12.63;7.50;;;10.90;1.00;;;;;;4994004;28;20414;-72
2022/04/06 01:53:30;;;;;;;9.93;6.90;;;10.90;1.00;;;;;;4995078;28;20251;-75
2022/04/06 01:55:56;;;;;;;10.37;7.23;;;;;;;;;;4993890;28;20426;-75
2022/04/06 01:58:22;;;;;;;10.97;7.03;;;10.90;1.00;;;;;;4994220;28;20216;-75
2022/04/06 02:00:49;;;;;;;15.40;7.67;;;11.00;1.00;;;;;;4994272;28;20440;-75
2022/04/06 02:03:15;;;;;;;11.03;7.50;;;10.90;1.00;;;;;;4994371;28;20387;-75
2022/04/06 02:05:41;;;;;;;9.03;6.67;;;10.90;1.00;;;;;;4993868;28;20407;-75
2022/04/06 02:08:07;;;;;;;11.53;7.80;;;10.90;1.00;;;;;;4994432;28;20427;-75
2022/04/06 02:10:33;;;;;;;12.00;7.67;;;10.90;1.00;;;;;;4994023;28;20208;-75
2022/04/06 02:12:59;;;;;;;10.63;7.67;;;;;;;;;;4995330;28;20476;-75
2022/04/06 02:15:27;;;;;;;10.83;7.50;;;11.00;1.00;;;;;;4993076;28;20472;-75
2022/04/06 02:17:53;;;;;;;11.30;7.93;;;11.00;1.00;;;;;;4993960;28;20429;-75
2022/04/06 02:20:20;;;;;;;9.53;6.50;;;;;;;;;;4994059;28;20462;-74
2022/04/06 02:22:46;;;;;;;17.90;8.40;;;11.00;1.00;;;;;;4994313;28;20456;-75
2022/04/06 02:25:12;;;;;;;9.40;6.60;;;;;;;;;;4993698;28;20407;-75
2022/04/06 02:27:51;;;;;;;11.27;7.50;;;11.00;1.00;;;;;;4993687;28;20380;-75
2022/04/06 02:30:18;;;;;;;11.00;6.83;;;;;;;;;;4990302;28;20816;-75
2022/04/06 02:32:44;;;;;;;8.70;6.70;;;11.00;1.00;;;;;;4993796;28;20398;-75
2022/04/06 02:35:10;;;;;;;12.07;7.60;;;11.00;1.00;;;;;;4993833;28;20768;-75
2022/04/06 02:37:36;;;;;;;8.30;6.27;;;11.00;1.00;;;;;;4993982;28;20419;-75
2022/04/06 02:40:04;;;;;;;13.70;7.90;;;10.90;1.00;;;;;;4993270;28;20413;-75
2022/04/06 02:42:30;;;;;;;15.97;8.07;;;11.00;1.00;;;;;;4993469;28;20203;-75
2022/04/06 02:44:56;;;;;;;11.53;7.00;;;;;;;;;;4993436;28;20420;-75
2022/04/06 02:47:22;;;;;;;12.07;7.57;;;10.90;1.00;;;;;;4993353;28;20253;-75
2022/04/06 02:49:48;;;;;;;11.87;8.23;;;;;;;;;;4993312;28;20897;-75
2022/04/06 02:52:13;;;;;;;12.10;8.13;;;10.90;1.00;;;;;;4993927;28;20711;-75
2022/04/06 02:54:39;;;;;;;11.23;7.80;;;;;;;;;;4993370;28;20411;-75
2022/04/06 02:57:06;;;;;;;10.53;7.80;;;;;;;;;;4993191;28;20216;-75
2022/04/06 02:59:31;;;;;;;11.17;8.07;;;10.90;1.00;;;;;;4993127;28;20403;-75
2022/04/06 03:01:57;;;;;;;11.70;7.73;;;;;;;;;;4993505;28;20466;-75
2022/04/06 03:04:23;;;;;;;13.37;8.00;;;11.00;1.00;;;;;;4993065;28;20536;-75
2022/04/06 03:06:49;;;;;;;14.00;8.23;;;;;;;;;;4993244;28;20423;-75
2022/04/06 03:09:15;;;;;;;11.47;8.00;;;11.00;1.00;;;;;;4993532;28;20759;-75
2022/04/06 03:11:41;;;;;;;13.80;7.73;;;;;;;;;;4993325;28;20391;-75
2022/04/06 03:14:06;;;;;;;11.07;8.00;;;11.00;1.00;;;;;;5004769;28;20646;-75
2022/04/06 03:16:32;;;;;;;19.80;7.50;;;;;;;;;;4993097;28;20437;-75
2022/04/06 03:18:58;;;;;;;12.20;6.80;;;11.00;1.00;;;;;;4991877;28;20193;-75
2022/04/06 03:21:24;;;;;;;15.63;7.77;;;;;;;;;;4993029;28;20456;-75
2022/04/06 03:23:50;;;;;;;12.77;8.80;;;11.00;1.00;;;;;;4993665;28;20260;-75
2022/04/06 03:26:16;;;;;;;10.03;7.13;;;;;;;;;;4994160;28;20795;-75
2022/04/06 03:28:42;;;;;;;9.77;7.23;;;11.00;1.00;;;;;;4997196;28;20207;-75
2022/04/06 03:31:08;;;;;;;11.00;6.73;;;;;;;;;;4996831;28;20397;-75
2022/04/06 03:33:35;;;;;;;11.40;6.90;;;11.00;1.00;;;;;;4996949;28;20428;-75
2022/04/06 03:36:00;;;;;;;12.03;8.00;;;11.00;1.00;;;;;;4997202;28;20398;-75
2022/04/06 03:38:26;;;;;;;10.23;8.23;;;;;;;;;;4996932;28;20417;-75
2022/04/06 03:40:52;;;;;;;9.37;6.70;;;11.00;1.00;;;;;;4996624;28;20231;-75
2022/04/06 03:43:19;;;;;;;16.13;7.27;;;;;;;;;;4996320;28;20425;-75
2022/04/06 03:45:44;;;;;;;8.23;6.37;;;11.00;1.00;;;;;;4997074;28;20181;-75
2022/04/06 03:48:10;;;;;;;11.10;6.90;;;11.00;1.00;;;;;;4995825;28;20396;-75
2022/04/06 03:50:36;;;;;;;13.87;7.10;;;11.00;1.00;;;;;;4996788;28;20174;-75
2022/04/06 03:53:01;;;;;;;14.97;7.33;;;10.90;1.00;;;;;;4996741;28;20280;-75
2022/04/06 03:55:27;;;;;;;10.90;7.00;;;;;;;;;;4996777;28;20387;-75
2022/04/06 03:57:53;;;;;;;12.03;7.10;;;10.90;1.00;;;;;;4996309;28;20182;-74
2022/04/06 04:00:19;;;;;;;11.17;7.10;;;10.90;1.00;;;;;;4996654;28;20390;-75
2022/04/06 04:02:46;;;;;;;12.33;7.03;;;10.90;1.00;;;;;;4996068;28;20617;-75
2022/04/06 04:05:13;;;;;;;10.73;6.67;;;10.90;1.00;;;;;;4996638;28;20201;-75
2022/04/06 04:07:39;;;;;;;9.50;7.20;;;11.00;1.00;;;;;;4996154;28;20428;-75
2022/04/06 04:10:09;;;;;;;11.10;6.70;;;10.90;1.00;;;;;;4996806;28;20937;-75
2022/04/06 04:12:36;;;;;;;8.30;5.80;;;10.90;1.00;;;;;;5001177;28;20447;-75
2022/04/06 04:15:02;;;;;;;8.77;5.40;;;10.90;1.00;;;;;;5003544;28;20389;-75
2022/04/06 04:17:28;;;;;;;10.43;5.70;;;10.90;1.00;;;;;;4996220;28;20391;-75
2022/04/06 04:19:53;;;;;;;5.40;4.60;;;10.90;1.00;;;;;;4996543;28;20403;-75
2022/04/06 04:22:19;;;;;;;8.60;4.57;;;10.90;1.00;;;;;;4995840;28;20213;-75
2022/04/06 04:24:45;;;;;;;4.93;3.70;;;;;;;;;;4995938;28;20174;-75
2022/04/06 04:27:11;;;;;;;8.40;3.93;;;10.90;1.00;;;;;;4995973;28;20184;-75
2022/04/06 04:29:36;;;;;;;7.17;3.50;;;10.90;1.00;;;;;;4996021;28;20749;-75
2022/04/06 04:32:02;;;;;;;8.30;3.80;;;11.00;1.00;;;;;;4995784;28;20228;-75
2022/04/06 04:34:28;;;;;;;6.70;3.67;;;10.90;1.00;;;;;;4995670;28;20260;-75
2022/04/06 04:36:55;;;;;;;6.90;3.63;;;10.90;1.00;;;;;;4995857;28;20833;-75
2022/04/06 04:39:21;;;;;;;9.00;3.17;;;10.90;1.00;;;;;;4995307;28;20177;-75
2022/04/06 04:41:47;;;;;;;4.03;3.00;;;11.00;1.00;;;;;;4995617;28;20939;-75
2022/04/06 04:44:13;;;;;;;3.40;2.77;;;11.00;1.00;;;;;;4995264;28;20340;-75
2022/04/06 04:46:39;;;;;;;10.83;3.00;;;;;;;;;;4995143;28;20911;-75
2022/04/06 04:49:04;;;;;;;5.20;2.47;;;11.10;1.00;;;;;;4995363;28;20531;-75
2022/04/06 04:51:30;;;;;;;4.43;2.70;;;11.00;1.00;;;;;;4995854;28;20415;-75
2022/04/06 04:53:57;;;;;;;9.13;2.40;;;11.10;1.00;;;;;;4996019;28;20493;-75
2022/04/06 04:56:25;;;;;;;6.43;2.57;;;11.00;1.00;;;;;;4989247;28;20186;-75
2022/04/06 04:58:51;;;;;;;7.30;2.20;;;11.00;1.00;;;;;;4995514;28;20388;-75
2022/04/06 05:01:17;;;;;;;7.70;2.57;;;11.00;1.00;;;;;;4995123;28;20449;-75
2022/04/06 05:03:43;;;;;;;7.83;3.00;;;;;;;;;;4994970;28;20428;-75
2022/04/06 05:06:09;;;;;;;3.17;2.73;;;10.90;1.00;;;;;;4995329;28;20405;-75
2022/04/06 05:08:35;;;;;;;3.67;2.67;;;;;;;;;;4995601;28;20421;-72
2022/04/06 05:11:01;;;;;;;5.23;2.60;;;10.80;1.00;;;;;;4995365;28;20185;-72
2022/04/06 05:13:26;;;;;;;5.87;2.60;;;10.80;1.00;;;;;;5003076;28;20443;-72
2022/04/06 05:15:52;;;;;;;7.23;2.47;;;10.90;1.00;;;;;;4994300;28;20436;-71
2022/04/06 05:18:19;;;;;;;13.33;3.03;;;10.80;1.00;;;;;;4994438;28;20196;-74
2022/04/06 05:20:44;;;;;;;7.90;2.70;;;10.90;1.00;;;;;;4994825;28;20393;-72
2022/04/06 05:23:10;;;;;;;6.43;2.67;;;;;;;;;;4993934;28;20951;-71
2022/04/06 05:25:36;;;;;;;3.17;2.30;;;10.90;1.00;;;;;;4994789;28;20703;-75
2022/04/06 05:28:02;;;;;;;3.97;2.47;;;10.90;1.00;;;;;;4989210;28;20432;-74
2022/04/06 05:30:29;;;;;;;8.17;2.93;;;11.00;1.00;;;;;;4994685;28;20179;-77
2022/04/06 05:32:56;;;;;;;6.30;1.97;;;11.00;1.00;;;;;;4994890;28;20395;-75
2022/04/06 05:35:24;;;;;;;8.00;2.50;;;11.00;1.00;;;;;;4994418;28;20408;-76
2022/04/06 05:37:50;;;;;;;6.20;2.57;;;11.00;1.00;;;;;;4994740;28;20416;-75
2022/04/06 05:40:17;;;;;;;6.47;2.83;;;11.10;1.00;;;;;;4994627;28;20442;-74
2022/04/06 05:42:43;;;;;;;6.70;2.30;;;11.10;1.00;;;;;;4994759;28;20508;-74
2022/04/06 05:45:09;;;;;;;7.40;2.53;;;;;;;;;;4994291;28;20543;-73
2022/04/06 05:47:35;;;;;;;3.60;2.20;;;11.20;1.00;;;;;;4989337;28;20417;-74
2022/04/06 05:50:03;;;;;;;6.10;2.63;;;11.30;1.00;;;;;;4994061;28;20498;-74
2022/04/06 05:52:28;;;;;;;6.73;2.80;;;11.30;1.00;;;;;;4994103;28;20800;-74
2022/04/06 05:54:54;;;;;;;3.50;2.30;;;11.40;1.00;;;;;;4994147;28;20444;-77
2022/04/06 05:57:20;;;;;;;6.40;3.00;;;11.50;1.00;;;;;;4994069;28;20193;-78
2022/04/06 05:59:46;;;;;;;7.37;3.20;;;11.50;1.00;;;;;;4994511;28;20181;-77
2022/04/06 06:02:12;;;;;;;3.40;3.10;;;11.50;1.00;;;;;;4994390;28;20457;-77
2022/04/06 06:04:38;;;;;;;4.23;3.13;;;11.50;1.00;;;;;;4994018;28;20178;-77
2022/04/06 06:07:07;;;;;;;7.20;3.57;;;11.60;1.00;;;;;;4994254;28;20515;-78
2022/04/06 06:09:33;;;;;;;9.33;3.00;;;;;;;;;;4994568;28;20416;-74
2022/04/06 06:11:59;;;;;;;6.37;2.80;;;11.70;1.00;;;;;;4994499;28;20789;-74
2022/04/06 06:14:26;;;;;;;10.03;3.20;;;11.70;1.00;;;;;;4994037;28;20487;-74
2022/04/06 06:16:52;;;;;;;7.83;3.10;;;11.80;1.00;;;;;;4994121;28;20555;-74
2022/04/06 06:19:17;;;;;;;8.23;3.80;;;11.70;1.00;;;;;;4993746;28;21082;-75
2022/04/06 06:21:43;;;;;;;7.73;2.83;;;11.80;1.00;;;;;;4993998;28;20228;-74
2022/04/06 06:24:09;;;;;;;5.23;3.17;;;;;;;;;;4994082;28;20596;-72
2022/04/06 06:26:39;;;;;;;4.97;3.33;;;11.90;1.00;;;;;;4993329;28;20173;-72
2022/04/06 06:29:05;;;;;;;9.40;3.00;;;11.90;1.00;;;;;;4993393;28;20411;-71
2022/04/06 06:31:31;;;;;;;9.80;3.00;;;11.90;1.00;;;;;;4993771;28;20396;-72
2022/04/06 06:34:01;;;;;;;12.03;3.40;;;11.90;1.00;;;;;;4993087;28;20407;-72
2022/04/06 06:36:27;;;;;;;7.73;2.63;;;11.90;1.00;;;;;;4993424;28;20415;-73
2022/04/06 06:38:54;;;;;;;9.60;2.20;;;12.00;1.00;;;;;;4993499;28;20422;-73
2022/04/06 06:41:20;;;;;;;6.27;2.70;;;12.00;1.00;;;;;;4993313;28;20822;-73
2022/04/06 06:43:48;;;;;;;6.07;2.50;;;12.00;1.00;;;;;;4992681;28;20438;-72
2022/04/06 06:46:15;;;;;;;8.47;2.80;;;12.00;1.00;;;;;;4992727;28;20459;-72
2022/04/06 06:48:41;;;;;;;8.10;2.67;;;;;;;;;;4992895;28;20407;-72
2022/04/06 06:51:06;;;;;;;4.73;2.57;;;12.10;1.00;;;;;;4993258;28;20439;-72
2022/04/06 06:53:32;;;;;;;4.70;2.70;;;12.10;1.00;;;;;;4993057;28;20806;-72
2022/04/06 06:55:57;;;;;;;7.87;3.10;;;12.10;1.00;;;;;;4993784;28;20173;-74
2022/04/06 06:58:23;;;;;;;6.33;2.93;;;;;;;;;;4992658;28;20566;-74
2022/04/06 07:00:49;;;;;;;6.73;3.27;;;12.10;1.00;;;;;;4992378;28;20181;-74
2022/04/06 07:03:15;;;;;;;3.63;2.40;;;;;;;;;;4993088;28;20437;-74
2022/04/06 07:05:41;;;;;;;9.10;2.43;;;12.20;1.00;;;;;;4992658;28;20205;-74
2022/04/06 07:08:07;;;;;;;6.23;2.60;;;12.20;1.00;;;;;;4993274;28;20840;-74
2022/04/06 07:10:32;;;;;;;11.10;3.07;;;12.20;1.00;;;;;;4993137;28;20173;-71
2022/04/06 07:12:58;;;;;;;10.27;3.20;;;12.30;1.00;;;;;;4997109;28;20432;-71
2022/04/06 07:15:24;;;;;;;9.00;2.87;;;12.40;1.00;;;;;;4992428;28;20600;-71
2022/04/06 07:17:55;;;;;;;5.13;2.67;;;12.50;1.00;;;;;;4993366;28;20200;-71
2022/04/06 07:20:26;;;;;;;7.20;2.60;;;12.40;1.00;;;;;;4989085;28;20487;-71
2022/04/06 07:22:52;;;;;;;3.07;2.13;;;12.20;1.00;;;;;;4992597;28;20464;-71
2022/04/06 07:25:19;;;;;;;5.70;2.17;;;12.30;1.00;;;;;;4993320;28;20461;-76
2022/04/06 07:27:45;;;;;;;7.07;2.57;;;12.40;1.00;;;;;;4992788;28;20875;-76
2022/04/06 07:30:12;;;;;;;3.43;2.20;;;12.50;1.00;;;;;;4992471;28;20424;-76
2022/04/06 07:32:38;;;;;;;7.00;2.57;;;12.60;1.00;;;;;;4992963;28;20178;-76
2022/04/06 07:35:06;;;;;;;4.03;2.57;;;12.60;1.00;;;;;;4992545;28;20937;-75
2022/04/06 07:37:39;;;;;;;7.37;2.20;;;12.60;1.00;;;;;;4970686;28;20407;-74
2022/04/06 07:40:14;;;;;;;10.53;3.47;;;12.50;1.00;;;;;;4988076;28;20429;-75
2022/04/06 07:42:43;;;;;;;4.93;2.57;;;12.40;1.00;;;;;;4986260;28;21148;-75
2022/04/06 07:45:14;;;;;;;4.33;2.10;;;12.40;1.00;;;;;;4992032;28;20387;-74
2022/04/06 07:47:40;;;;;;;6.70;2.97;;;12.60;1.00;;;;;;4992796;28;20428;-74
2022/04/06 07:50:07;;;;;;;3.70;2.20;;;12.60;1.00;;;;;;4991060;28;20956;-74
2022/04/06 07:52:34;;;;;;;7.33;2.87;;;12.60;1.00;;;;;;4992297;28;20436;-74
2022/04/06 07:55:01;;;;;;;3.50;2.00;;;12.80;1.00;;;;;;4993531;28;20398;-71
2022/04/06 07:57:27;;;;;;;3.43;2.10;;;12.90;1.00;;;;;;4992684;28;20808;-71
2022/04/06 07:59:57;;;;;;;5.90;2.43;;;13.00;1.00;;;;;;4992344;28;20925;-72
2022/04/06 08:02:23;;;;;;;4.13;2.00;;;13.10;1.00;;;;;;4992846;28;20511;-71
2022/04/06 08:04:50;;;;;;;10.23;3.07;;;;;;;;;;4986724;28;20444;-73
2022/04/06 08:07:16;;;;;;;4.43;2.73;;;13.10;1.00;;;;;;5005541;28;20174;-71
2022/04/06 08:09:42;;;;;;;5.23;2.43;;;;;;;;;;4991871;28;20490;-72
2022/04/06 08:12:08;;;;;;;3.10;2.13;;;;;;;;;;4992505;28;20177;-75
2022/04/06 08:14:34;;;;;;;5.57;2.57;;;;;;;;;;4995720;28;20411;-75
2022/04/06 08:16:59;;;;;;;6.03;3.00;;;12.90;1.00;;;;;;4996225;28;20404;-75
2022/04/06 08:19:26;;;;;;;4.60;3.20;;;;;;;;;;4996119;28;20399;-74
2022/04/06 08:21:53;;;;;;;5.73;2.47;;;13.00;1.00;;;;;;4995958;28;20260;-75
2022/04/06 08:24:19;;;;;;;5.73;2.60;;;;;;;;;;4995962;28;20726;-74
2022/04/06 08:26:45;;;;;;;10.30;2.40;;;12.80;1.00;;;;;;4996004;28;20466;-75
2022/04/06 08:29:11;;;;;;;14.00;3.00;;;12.80;1.00;;;;;;4995666;28;20961;-72
2022/04/06 08:31:37;;;;;;;4.00;2.20;;;;;;;;;;4989043;28;20532;-75
2022/04/06 08:34:04;;;;;;;9.93;2.80;;;;;;;;;;4995933;28;20252;-75
2022/04/06 08:36:30;;;;;;;7.07;3.00;;;13.00;1.00;;;;;;4995860;28;20387;-74
2022/04/06 08:39:02;;;;;;;7.77;2.77;;;13.00;1.00;;;;;;4992461;28;20436;-73
2022/04/06 08:41:30;;;;;;;11.70;3.30;;;13.00;1.00;;;;;;4988924;28;20205;-73
2022/04/06 08:43:58;;;;;;;4.33;2.50;;;13.00;1.00;;;;;;4996218;28;20412;-72
2022/04/06 08:46:25;;;;;;;6.30;2.60;;;13.00;1.00;;;;;;4996673;28;20873;-75
2022/04/06 08:49:08;;;;;;;4.77;2.50;;;13.10;1.00;;;;;;4996163;28;20472;-74
2022/04/06 08:51:38;;;;;;;7.07;2.90;;;13.10;1.00;;;;;;4996922;28;20495;-76
2022/04/06 08:54:05;;;;;;;7.30;2.73;;;13.10;1.00;;;;;;4996821;28;20414;-75
2022/04/06 08:56:31;;;;;;;8.60;2.67;;;13.20;1.00;;;;;;4996447;28;20417;-71
2022/04/06 08:58:58;;;;;;;3.90;2.57;;;13.30;1.00;;;;;;4995995;28;20409;-71
2022/04/06 09:01:24;;;;;;;4.77;3.00;;;13.40;1.00;;;;;;4995780;28;20209;-71
2022/04/06 09:03:50;;;;;;;7.00;3.30;;;13.50;1.00;;;;;;4996193;28;20441;-73
2022/04/06 09:06:18;;;;;;;10.10;4.00;;;13.50;1.00;;;;;;4995907;28;20178;-71
2022/04/06 09:08:46;;;;;;;10.70;3.20;;;13.40;1.00;;;;;;4995639;28;20174;-71
2022/04/06 09:11:51;;;;;;;9.67;3.40;;;13.60;1.00;;;;;;4996235;28;20416;-79
2022/04/06 09:14:42;;;;;;;8.47;2.67;;;13.70;1.00;;;;;;4995739;28;20499;-79
2022/04/06 09:17:19;;;;;;;8.97;3.20;;;13.80;1.00;;;;;;4995967;28;20407;-80
2022/04/06 09:19:47;;;;;;;4.50;2.70;;;13.80;1.00;;;;;;4996049;28;20480;-80
2022/04/06 09:25:40;;;;;;;3.00;2.70;;;13.60;1.00;;;;;;4995178;28;20416;-78
2022/04/06 09:28:16;;;;;;;9.40;2.70;;;;;;;;;;4995870;28;20779;-80
2022/04/06 09:30:46;;;;;;;12.83;3.50;;;13.70;1.00;;;;;;4995530;28;20415;-79
2022/04/06 09:33:18;;;;;;;11.10;2.70;;;13.80;1.00;;;;;;4994830;28;20455;-73
2022/04/06 09:35:44;;;;;;;2.67;2.10;;;;;;;;;;4995728;28;20535;-73
2022/04/06 09:38:32;;;;;;;5.17;2.40;;;14.00;1.00;;;;;;4995518;28;20384;-73
2022/04/06 09:41:06;;;;;;;5.07;2.37;;;14.00;1.00;;;;;;4987554;28;20413;-73
2022/04/06 09:43:35;;;;;;;13.07;3.40;;;14.00;1.00;;;;;;4995140;28;20428;-77
2022/04/06 09:49:09;;;;;;;4.77;2.17;;;14.10;1.00;;;;;;4983694;28;20422;-72
2022/04/06 09:51:37;;;;;;;4.57;2.07;;;14.10;99.90;;;;;;4991688;28;20463;-72
2022/04/06 09:54:04;;;;;;;8.63;2.40;;;14.00;99.90;;;;;;4994924;28;20493;-70
2022/04/06 09:56:35;;;;;;;6.73;2.77;;;14.00;99.90;;;;;;4995488;28;20383;-70
2022/04/06 09:59:03;;;;;;;9.33;2.47;;;14.00;99.90;;;;;;4995110;28;20420;-70
2022/04/06 10:01:38;;;;;;;4.63;2.20;;;14.10;99.90;;;;;;4994499;28;21124;-70
2022/04/06 10:04:07;;;;;;;2.77;2.37;;;14.20;99.90;;;;;;4995003;28;20416;-70
2022/04/06 10:06:40;;;;;;;3.83;2.07;;;14.30;99.90;;;;;;4994956;28;20413;-70
2022/04/06 10:09:07;;;;;;;15.93;2.40;;;14.40;99.90;;;;;;4994081;28;20417;-70
2022/04/06 10:11:35;;;;;;;6.47;2.80;;;14.50;99.90;;;;;;4994268;28;20462;-74
2022/04/06 10:14:04;;;;;;;3.93;2.10;;;14.40;99.90;;;;;;4996628;28;20384;-75
2022/04/06 10:16:31;;;;;;;14.23;3.33;;;14.30;99.90;;;;;;4990693;28;20462;-74
2022/04/06 10:18:57;;;;;;;8.70;2.63;;;14.30;99.90;;;;;;4987302;28;20884;-77
2022/04/06 10:21:44;;;;;;;4.50;2.73;;;14.50;99.90;;;;;;4994287;28;20751;-76
2022/04/06 10:24:46;;;;;;;5.07;2.60;;;14.40;99.90;;;;;;4982909;28;20421;-77
2022/04/06 10:27:27;;;;;;;12.70;3.43;;;14.40;99.90;;;;;;4993744;28;20955;-77
2022/04/06 10:30:10;;;;;;;6.43;3.20;;;14.50;99.90;;;;;;4993839;28;20386;-77
2022/04/06 10:32:41;;;;;;;6.30;3.10;;;14.60;99.90;;;;;;4993431;28;20980;-77
2022/04/06 10:35:36;;;;;;;5.97;2.93;;;14.60;99.90;;;;;;4990450;28;20913;-77
2022/04/06 10:38:04;;;;;;;3.90;2.90;;;14.40;1.00;;;;;;4993121;28;20754;-78
2022/04/06 10:40:52;;;;;;;4.77;3.00;;;14.40;1.00;;;;;;4993570;28;20908;-77
2022/04/06 10:43:43;;;;;;;8.50;3.77;;;14.50;1.00;;;;;;4993430;28;20420;-77
2022/04/06 10:46:15;;;;;;;4.23;2.97;;;14.50;1.00;;;;;;4992782;28;20467;-77
2022/04/06 10:48:55;;;;;;;15.87;3.90;;;14.50;1.00;;;;;;4992888;28;20453;-78
2022/04/06 10:51:33;;;;;;;8.60;3.00;;;14.60;1.00;;;;;;4993940;28;20463;-77
2022/04/06 10:54:00;;;;;;;13.87;4.00;;;;;;;;;;4993028;28;20943;-76
2022/04/06 10:56:48;;;;;;;6.33;3.53;;;14.80;1.00;;;;;;4993675;28;20757;-71
2022/04/06 10:59:21;;;;;;;5.00;3.77;;;15.00;1.00;;;;;;4988895;28;20428;-76
2022/04/06 11:01:51;;;;;;;10.40;3.90;;;14.80;1.00;;;;;;4993313;28;20750;-76
2022/04/06 11:04:22;;;;;;;6.70;4.10;;;14.60;1.00;;;;;;4993124;28;20433;-76
2022/04/06 11:06:56;;;;;;;17.00;4.97;;;14.60;1.00;;;;;;4993343;28;20411;-76
2022/04/06 11:12:21;;;;;;;5.40;3.03;;;14.60;1.00;;;;;;4994956;28;20452;-75
2022/04/06 11:14:53;;;;;;;6.67;4.17;;;14.60;1.00;;;;;;4988131;28;20444;-77
2022/04/06 11:17:32;;;;;;;7.07;4.00;;;14.70;1.00;;;;;;4993453;28;20387;-76
2022/04/06 11:19:58;;;;;;;6.07;3.77;;;15.00;1.00;;;;;;4993214;28;20423;-76
2022/04/06 11:22:25;;;;;;;11.20;3.70;;;;;;;;;;4992002;28;20784;-76
2022/04/06 11:24:51;;;;;;;4.43;3.47;;;;;;;;;;4993092;28;20736;-77
2022/04/06 11:27:31;;;;;;;10.63;4.00;;;15.60;99.90;;;;;;4986202;28;20413;-71
2022/04/06 11:30:02;;;;;;;8.70;3.90;;;15.50;99.90;;;;;;4993221;28;20895;-70
2022/04/06 11:32:28;;;;;;;9.70;3.90;;;;;;;;;;4992345;28;20929;-71
2022/04/06 11:35:01;;;;;;;11.03;3.23;;;15.10;99.90;;;;;;4991494;28;20424;-71
2022/04/06 11:37:28;;;;;;;5.47;3.30;;;15.00;99.90;;;;;;4992260;28;20466;-71
2022/04/06 11:40:01;;;;;;;9.47;4.07;;;14.90;99.90;;;;;;4992938;28;20452;-71
2022/04/06 11:42:27;;;;;;;4.47;2.90;;;;;;;;;;4993199;28;20502;-70
2022/04/06 11:44:56;;;;;;;15.23;3.27;;;14.90;99.90;;;;;;4993272;28;20430;-71
2022/04/06 11:47:38;;;;;;;5.50;3.43;;;14.90;99.90;;;;;;4993743;28;20464;-71
2022/04/06 11:50:12;;;;;;;10.73;3.37;;;14.80;99.90;;;;;;4996450;28;20894;-71
2022/04/06 11:52:41;;;;;;;10.50;4.27;;;;;;;;;;4996326;28;20464;-71
2022/04/06 11:55:10;;;;;;;3.63;2.70;;;14.90;99.90;;;;;;4996693;28;20912;-71
2022/04/06 11:57:40;;;;;;;7.67;3.03;;;14.90;99.90;;;;;;4996619;28;20954;-72
2022/04/06 12:00:08;;;;;;;5.00;2.60;;;15.10;99.90;;;;;;4996641;28;20434;-71
2022/04/06 12:02:47;;;;;;;5.87;3.40;;;15.40;99.90;;;;;;4996450;28;20928;-72
2022/04/06 12:05:13;;;;;;;6.03;3.00;;;;;;;;;;4995892;28;20403;-71
2022/04/06 12:07:39;;;;;;;22.83;6.70;;;15.60;99.90;;;;;;4981182;28;20494;-82
2022/04/06 12:10:06;;;;;;;7.43;3.17;;;15.70;99.90;;;;;;4993108;28;20437;-82
2022/04/06 12:12:35;;;;;;;6.53;2.43;;;15.70;99.90;;;;;;4999850;28;20200;-76
2022/04/06 12:15:02;;;;;;;4.20;2.23;;;15.70;99.90;;;;;;4995470;28;20431;-75
2022/04/06 12:17:28;;;;;;;5.60;2.80;;;;;;;;;;4995842;28;20435;-78
2022/04/06 12:19:54;;;;;;;6.10;2.83;;;;;;;;;;4991472;28;20974;-77
2022/04/06 12:22:25;;;;;;;9.50;2.80;;;;;;;;;;4993744;28;20520;-75
2022/04/06 12:24:51;;;;;;;4.30;2.20;;;15.50;99.90;;;;;;4996192;28;20888;-77
2022/04/06 12:27:30;;;;;;;10.73;2.30;;;15.60;99.90;;;;;;4986131;28;20423;-79
2022/04/06 12:30:11;;;;;;;2.77;2.10;;;15.60;99.90;;;;;;4995836;28;20427;-82
2022/04/06 12:32:49;;;;;;;8.17;2.50;;;15.40;99.90;;;;;;4996186;28;20474;-82
2022/04/06 12:35:19;;;;;;;5.33;1.90;;;15.30;99.90;;;;;;4995777;28;20411;-82
2022/04/06 12:37:45;;;;;;;5.17;1.93;;;15.20;99.90;;;;;;4995797;28;20427;-81
2022/04/06 12:40:11;;;;;;;2.73;1.57;;;;;;;;;;4995531;28;20429;-81
2022/04/06 12:42:37;;;;;;;5.37;1.37;;;;;;;;;;4996075;28;20186;-76
2022/04/06 12:45:06;;;;;;;6.27;1.53;;;15.30;99.90;;;;;;4995504;28;20411;-75
2022/04/06 12:47:32;;;;;;;3.70;1.70;;;;;;;;;;4995915;28;20395;-73
2022/04/06 12:50:19;;;;;;;11.00;2.20;;;15.30;99.90;;;;;;4995135;28;20419;-77
2022/04/06 12:52:47;;;;;;;8.50;1.87;;;15.10;99.90;;;;;;4989898;28;20514;-75
2022/04/06 12:55:15;;;;;;;6.70;1.77;;;;;;;;;;4995127;28;20473;-75
2022/04/06 12:57:43;;;;;;;5.00;1.30;;;15.10;99.90;;;;;;4996012;28;20452;-76
2022/04/06 13:00:13;;;;;;;1.73;1.30;;;15.20;99.90;;;;;;4994988;28;20776;-78
2022/04/06 13:02:52;;;;;;;8.67;1.70;;;15.10;99.90;;;;;;4995463;28;20460;-80
2022/04/06 13:05:19;;;;;;;6.63;2.00;;;15.20;99.90;;;;;;4995261;28;20443;-80
2022/04/06 13:07:47;;;;;;;2.37;1.30;;;15.20;99.90;;;;;;4995362;28;20435;-80
2022/04/06 13:10:29;;;;;;;2.57;1.30;;;15.00;99.90;;;;;;4992956;28;20445;-79
2022/04/06 13:12:56;;;;;;;6.27;1.30;;;14.90;99.90;;;;;;4997704;28;20808;-78
2022/04/06 13:15:22;;;;;;;6.00;1.93;;;;;;;;;;4995092;28;20491;-77
2022/04/06 13:17:48;;;;;;;2.73;1.10;;;15.00;99.90;;;;;;4995033;28;20915;-75
2022/04/06 13:20:18;;;;;;;3.30;1.40;;;14.90;99.90;;;;;;4995028;28;20403;-75
2022/04/06 13:22:45;;;;;;;1.93;1.07;;;14.90;99.90;;;;;;4995149;28;20440;-75
2022/04/06 13:25:12;;;;;;;2.13;1.30;;;;;;;;;;4994786;28;20500;-75
2022/04/06 13:27:39;;;;;;;3.30;1.20;;;15.30;99.90;;;;;;4994314;28;20915;-75
2022/04/06 13:30:07;;;;;;;2.10;1.40;;;15.50;99.90;;;;;;4994908;28;20479;-75